Aeroporto :
LOGIN :

Iscrizione | Disclaimer

   EN    FR    IT 

 










Sommario :    VFR   VFR Marginale   IFR   IFR Intensivo   IFR Molto Intensivo
Visibilità : 
Base nubi : 
>= 8 km
>= 3000ft
5 / 8 km
1000 / 3000 ft
1500m / 5 km
500 / 1000 ft
800 / 1500m
200 / 500 ft
< 800m
< 200 ft
Simboli :   Temporali  Nebbia  Neve Forte  Precipitazioni Forti  Vento > 20 kt
SIGMETs :   Varie  Temporali  Ghiacco  Turbolenza  Onda orograficha  Ceneri Vulcaniche






- Altitudine del aeroporto : 2220 ft


LOXZ - Zeltweg AB

ULTIMO METAR :
  • 130920Z VRB01KT 5000 -RASN SCT003ST OVC015ST 02/01 Q0999 NOSIG

METARs OBSOLETI :
  • 130850Z 32003KT 4500 -RASN FEW002ST BKN011ST OVC015ST 02/01 Q0999 NOSIG
  • 130820Z 34004KT 6000 RA FEW002ST BKN011ST OVC014ST 02/02 Q0999 NOSIG
  • 130750Z VRB02KT 6000 -RA FEW002ST SCT04ST BKN011SC 02/02 Q0999 NOSIG
  • 130720Z VRB01KT 8000 -RA FEW002ST BKN013ST OVC023SC 02/01 Q0999 NOSIG
  • 130650Z 34003KT 6000 -RA FEW002ST BKN011ST OVC023SC 02/02 Q1000 NOSIG

TAF TAF LOXZ
Valido dal 13 a 09 ore il 13 a 18 ore UTC


130815Z 1309/1318 VRB03KT 8000 -RA SCT010 BKN025
TEMPO 1309/1318 07007KT 4000 RA BR SCT003 OVC008
PROB40
TEMPO 1313/1318 2500 RASN



MetMap, La meteo Aeronautica in un colpo d'occhio ! - Copyright ORBIFLY Dicembre 2007 - Disclaimer

ORBIFLY MET'MAP TEAM :

Programmazione e sviluppo : Alexandra Zaïnal
Concezione e sviluppo : Baudouin d'Aumeries
Co-Programmazione e sviluppo : Marc-Olivier Méhu
Supporto tecnico e logistico : Manuel Goepfert
Aiuto per la traduzione : Arnaldo La Scala

Contatto : metmap@orbifly.com




FONTI E CREDITI :

   NOAA